<?xml version="1.0" encoding="UTF-8" standalone="no" ?>
<gpx xmlns="http://www.topografix.com/GPX/1/1" xmlns:xsi="http://www.w3.org/2001/XMLSchema-instance" xsi:schemaLocation="http://www.topografix.com/GPX/1/1 http://www.topografix.com/GPX/1/1/gpx.xsd" version="1.1" creator="VisuGPX - https://www.visugpx.com">
  <metadata>
    <name>refuge du bastan à aulon par pic de portarras, Hautes Pyrénées, par NATAKA</name>
  </metadata>
  <trk>
    <name><![CDATA[13884443-refuge du bastan à aulon par pic de portarras]]></name>
    <trkseg>
      <trkpt lat="42.85346" lon="0.20945">
        <ele>2240</ele>
        <time>2021-10-29T14:58:41Z</time>
      </trkpt>
      <trkpt lat="42.85344" lon="0.20954">
        <ele>2241</ele>
        <time>2021-10-29T14:58:47Z</time>
      </trkpt>
      <trkpt lat="42.85355" lon="0.20953">
        <ele>2242</ele>
        <time>2021-10-29T14:58:55Z</time>
      </trkpt>
      <trkpt lat="42.85347" lon="0.20969">
        <ele>2244</ele>
        <time>2021-10-29T14:59:07Z</time>
      </trkpt>
      <trkpt lat="42.85353" lon="0.20967">
        <ele>2245</ele>
        <time>2021-10-29T14:59:12Z</time>
      </trkpt>
      <trkpt lat="42.8536" lon="0.20969">
        <ele>2246</ele>
        <time>2021-10-29T14:59:17Z</time>
      </trkpt>
      <trkpt lat="42.85367" lon="0.20968">
        <ele>2246</ele>
        <time>2021-10-29T14:59:23Z</time>
      </trkpt>
      <trkpt lat="42.85388" lon="0.20975">
        <ele>2249</ele>
        <time>2021-10-29T14:59:40Z</time>
      </trkpt>
      <trkpt lat="42.8541" lon="0.20972">
        <ele>2251</ele>
        <time>2021-10-29T14:59:58Z</time>
      </trkpt>
      <trkpt lat="42.85423" lon="0.20949">
        <ele>2248</ele>
        <time>2021-10-29T15:00:15Z</time>
      </trkpt>
      <trkpt lat="42.85442" lon="0.2094">
        <ele>2249</ele>
        <time>2021-10-29T15:00:31Z</time>
      </trkpt>
      <trkpt lat="42.85449" lon="0.20926">
        <ele>2249</ele>
        <time>2021-10-29T15:00:41Z</time>
      </trkpt>
      <trkpt lat="42.85453" lon="0.20911">
        <ele>2248</ele>
        <time>2021-10-29T15:00:51Z</time>
      </trkpt>
      <trkpt lat="42.85452" lon="0.20894">
        <ele>2249</ele>
        <time>2021-10-29T15:01:01Z</time>
      </trkpt>
      <trkpt lat="42.85453" lon="0.20887">
        <ele>2249</ele>
        <time>2021-10-29T15:01:05Z</time>
      </trkpt>
      <trkpt lat="42.85468" lon="0.20876">
        <ele>2254</ele>
        <time>2021-10-29T15:01:18Z</time>
      </trkpt>
      <trkpt lat="42.85503" lon="0.20858">
        <ele>2265</ele>
        <time>2021-10-29T15:01:48Z</time>
      </trkpt>
      <trkpt lat="42.85516" lon="0.20857">
        <ele>2266</ele>
        <time>2021-10-29T15:01:59Z</time>
      </trkpt>
      <trkpt lat="42.85521" lon="0.20847">
        <ele>2268</ele>
        <time>2021-10-29T15:02:06Z</time>
      </trkpt>
      <trkpt lat="42.85532" lon="0.2084">
        <ele>2270</ele>
        <time>2021-10-29T15:02:16Z</time>
      </trkpt>
      <trkpt lat="42.85535" lon="0.2083">
        <ele>2271</ele>
        <time>2021-10-29T15:02:22Z</time>
      </trkpt>
      <trkpt lat="42.85548" lon="0.20824">
        <ele>2273</ele>
        <time>2021-10-29T15:02:33Z</time>
      </trkpt>
      <trkpt lat="42.85564" lon="0.20805">
        <ele>2277</ele>
        <time>2021-10-29T15:02:50Z</time>
      </trkpt>
      <trkpt lat="42.85571" lon="0.20786">
        <ele>2280</ele>
        <time>2021-10-29T15:03:02Z</time>
      </trkpt>
      <trkpt lat="42.85596" lon="0.20756">
        <ele>2286</ele>
        <time>2021-10-29T15:03:29Z</time>
      </trkpt>
      <trkpt lat="42.85608" lon="0.20744">
        <ele>2288</ele>
        <time>2021-10-29T15:03:41Z</time>
      </trkpt>
      <trkpt lat="42.8563" lon="0.20738">
        <ele>2290</ele>
        <time>2021-10-29T15:03:59Z</time>
      </trkpt>
      <trkpt lat="42.85657" lon="0.20718">
        <ele>2294</ele>
        <time>2021-10-29T15:04:23Z</time>
      </trkpt>
      <trkpt lat="42.85669" lon="0.20712">
        <ele>2296</ele>
        <time>2021-10-29T15:04:34Z</time>
      </trkpt>
      <trkpt lat="42.85673" lon="0.20712">
        <ele>2297</ele>
        <time>2021-10-29T15:04:37Z</time>
      </trkpt>
      <trkpt lat="42.85699" lon="0.20737">
        <ele>2296</ele>
        <time>2021-10-29T15:05:02Z</time>
      </trkpt>
      <trkpt lat="42.85709" lon="0.20737">
        <ele>2297</ele>
        <time>2021-10-29T15:05:10Z</time>
      </trkpt>
      <trkpt lat="42.85716" lon="0.20731">
        <ele>2299</ele>
        <time>2021-10-29T15:05:17Z</time>
      </trkpt>
      <trkpt lat="42.85717" lon="0.20725">
        <ele>2300</ele>
        <time>2021-10-29T15:05:21Z</time>
      </trkpt>
      <trkpt lat="42.85719" lon="0.20724">
        <ele>2301</ele>
        <time>2021-10-29T15:05:22Z</time>
      </trkpt>
      <trkpt lat="42.85722" lon="0.20729">
        <ele>2300</ele>
        <time>2021-10-29T15:05:26Z</time>
      </trkpt>
      <trkpt lat="42.85735" lon="0.20728">
        <ele>2302</ele>
        <time>2021-10-29T15:05:37Z</time>
      </trkpt>
      <trkpt lat="42.8574" lon="0.20746">
        <ele>2301</ele>
        <time>2021-10-29T15:05:48Z</time>
      </trkpt>
      <trkpt lat="42.85745" lon="0.20752">
        <ele>2301</ele>
        <time>2021-10-29T15:05:53Z</time>
      </trkpt>
      <trkpt lat="42.8575" lon="0.20752">
        <ele>2302</ele>
        <time>2021-10-29T15:05:57Z</time>
      </trkpt>
      <trkpt lat="42.85765" lon="0.20739">
        <ele>2305</ele>
        <time>2021-10-29T15:06:11Z</time>
      </trkpt>
      <trkpt lat="42.85769" lon="0.20741">
        <ele>2306</ele>
        <time>2021-10-29T15:06:15Z</time>
      </trkpt>
      <trkpt lat="42.85771" lon="0.20744">
        <ele>2306</ele>
        <time>2021-10-29T15:06:17Z</time>
      </trkpt>
      <trkpt lat="42.85776" lon="0.20748">
        <ele>2306</ele>
        <time>2021-10-29T15:06:22Z</time>
      </trkpt>
      <trkpt lat="42.85786" lon="0.20748">
        <ele>2307</ele>
        <time>2021-10-29T15:06:30Z</time>
      </trkpt>
      <trkpt lat="42.85791" lon="0.20747">
        <ele>2308</ele>
        <time>2021-10-29T15:06:34Z</time>
      </trkpt>
      <trkpt lat="42.85793" lon="0.20742">
        <ele>2309</ele>
        <time>2021-10-29T15:06:37Z</time>
      </trkpt>
      <trkpt lat="42.85798" lon="0.20739">
        <ele>2310</ele>
        <time>2021-10-29T15:06:42Z</time>
      </trkpt>
      <trkpt lat="42.85802" lon="0.20739">
        <ele>2310</ele>
        <time>2021-10-29T15:06:45Z</time>
      </trkpt>
      <trkpt lat="42.8581" lon="0.20734">
        <ele>2312</ele>
        <time>2021-10-29T15:06:52Z</time>
      </trkpt>
      <trkpt lat="42.85818" lon="0.20734">
        <ele>2313</ele>
        <time>2021-10-29T15:06:58Z</time>
      </trkpt>
      <trkpt lat="42.85822" lon="0.20735">
        <ele>2314</ele>
        <time>2021-10-29T15:07:02Z</time>
      </trkpt>
      <trkpt lat="42.85825" lon="0.20739">
        <ele>2314</ele>
        <time>2021-10-29T15:07:05Z</time>
      </trkpt>
      <trkpt lat="42.85834" lon="0.20743">
        <ele>2315</ele>
        <time>2021-10-29T15:07:12Z</time>
      </trkpt>
      <trkpt lat="42.85847" lon="0.20742">
        <ele>2316</ele>
        <time>2021-10-29T15:07:23Z</time>
      </trkpt>
      <trkpt lat="42.85855" lon="0.20744">
        <ele>2316</ele>
        <time>2021-10-29T15:07:29Z</time>
      </trkpt>
      <trkpt lat="42.85871" lon="0.20758">
        <ele>2316</ele>
        <time>2021-10-29T15:07:45Z</time>
      </trkpt>
      <trkpt lat="42.85876" lon="0.20759">
        <ele>2317</ele>
        <time>2021-10-29T15:07:49Z</time>
      </trkpt>
      <trkpt lat="42.85897" lon="0.20752">
        <ele>2319</ele>
        <time>2021-10-29T15:08:06Z</time>
      </trkpt>
      <trkpt lat="42.85902" lon="0.20751">
        <ele>2320</ele>
        <time>2021-10-29T15:08:10Z</time>
      </trkpt>
      <trkpt lat="42.85908" lon="0.20754">
        <ele>2320</ele>
        <time>2021-10-29T15:08:15Z</time>
      </trkpt>
      <trkpt lat="42.85914" lon="0.20751">
        <ele>2321</ele>
        <time>2021-10-29T15:08:20Z</time>
      </trkpt>
      <trkpt lat="42.85919" lon="0.20742">
        <ele>2322</ele>
        <time>2021-10-29T15:08:27Z</time>
      </trkpt>
      <trkpt lat="42.85924" lon="0.2074">
        <ele>2322</ele>
        <time>2021-10-29T15:08:31Z</time>
      </trkpt>
      <trkpt lat="42.85929" lon="0.20733">
        <ele>2323</ele>
        <time>2021-10-29T15:08:37Z</time>
      </trkpt>
      <trkpt lat="42.85928" lon="0.20727">
        <ele>2324</ele>
        <time>2021-10-29T15:08:40Z</time>
      </trkpt>
      <trkpt lat="42.85932" lon="0.20718">
        <ele>2325</ele>
        <time>2021-10-29T15:08:47Z</time>
      </trkpt>
      <trkpt lat="42.8595" lon="0.20697">
        <ele>2328</ele>
        <time>2021-10-29T15:09:06Z</time>
      </trkpt>
      <trkpt lat="42.85964" lon="0.20693">
        <ele>2329</ele>
        <time>2021-10-29T15:09:17Z</time>
      </trkpt>
      <trkpt lat="42.85966" lon="0.2069">
        <ele>2330</ele>
        <time>2021-10-29T15:09:19Z</time>
      </trkpt>
      <trkpt lat="42.85969" lon="0.20691">
        <ele>2330</ele>
        <time>2021-10-29T15:09:22Z</time>
      </trkpt>
      <trkpt lat="42.85971" lon="0.20688">
        <ele>2330</ele>
        <time>2021-10-29T15:09:24Z</time>
      </trkpt>
      <trkpt lat="42.8598" lon="0.20687">
        <ele>2331</ele>
        <time>2021-10-29T15:09:31Z</time>
      </trkpt>
      <trkpt lat="42.85986" lon="0.20684">
        <ele>2332</ele>
        <time>2021-10-29T15:09:37Z</time>
      </trkpt>
      <trkpt lat="42.85989" lon="0.2068">
        <ele>2333</ele>
        <time>2021-10-29T15:09:40Z</time>
      </trkpt>
      <trkpt lat="42.85998" lon="0.20677">
        <ele>2334</ele>
        <time>2021-10-29T15:09:47Z</time>
      </trkpt>
      <trkpt lat="42.86014" lon="0.20683">
        <ele>2338</ele>
        <time>2021-10-29T15:10:01Z</time>
      </trkpt>
      <trkpt lat="42.86023" lon="0.20693">
        <ele>2339</ele>
        <time>2021-10-29T15:10:10Z</time>
      </trkpt>
      <trkpt lat="42.86032" lon="0.20693">
        <ele>2342</ele>
        <time>2021-10-29T15:10:17Z</time>
      </trkpt>
      <trkpt lat="42.86041" lon="0.20683">
        <ele>2345</ele>
        <time>2021-10-29T15:10:26Z</time>
      </trkpt>
      <trkpt lat="42.86051" lon="0.20682">
        <ele>2348</ele>
        <time>2021-10-29T15:10:34Z</time>
      </trkpt>
      <trkpt lat="42.86055" lon="0.20686">
        <ele>2349</ele>
        <time>2021-10-29T15:10:38Z</time>
      </trkpt>
      <trkpt lat="42.86072" lon="0.2069">
        <ele>2354</ele>
        <time>2021-10-29T15:10:52Z</time>
      </trkpt>
      <trkpt lat="42.86075" lon="0.20698">
        <ele>2354</ele>
        <time>2021-10-29T15:10:57Z</time>
      </trkpt>
      <trkpt lat="42.86079" lon="0.20698">
        <ele>2355</ele>
        <time>2021-10-29T15:11:01Z</time>
      </trkpt>
      <trkpt lat="42.86086" lon="0.20694">
        <ele>2358</ele>
        <time>2021-10-29T15:11:07Z</time>
      </trkpt>
      <trkpt lat="42.86089" lon="0.20697">
        <ele>2359</ele>
        <time>2021-10-29T15:11:10Z</time>
      </trkpt>
      <trkpt lat="42.86097" lon="0.20698">
        <ele>2362</ele>
        <time>2021-10-29T15:11:16Z</time>
      </trkpt>
      <trkpt lat="42.86099" lon="0.207">
        <ele>2362</ele>
        <time>2021-10-29T15:11:18Z</time>
      </trkpt>
      <trkpt lat="42.86101" lon="0.207">
        <ele>2363</ele>
        <time>2021-10-29T15:11:20Z</time>
      </trkpt>
      <trkpt lat="42.86104" lon="0.2069">
        <ele>2365</ele>
        <time>2021-10-29T15:11:26Z</time>
      </trkpt>
      <trkpt lat="42.86118" lon="0.20643">
        <ele>2370</ele>
        <time>2021-10-29T15:11:56Z</time>
      </trkpt>
      <trkpt lat="42.86137" lon="0.2065">
        <ele>2376</ele>
        <time>2021-10-29T15:12:12Z</time>
      </trkpt>
      <trkpt lat="42.86154" lon="0.20667">
        <ele>2382</ele>
        <time>2021-10-29T15:12:29Z</time>
      </trkpt>
      <trkpt lat="42.86161" lon="0.20679">
        <ele>2384</ele>
        <time>2021-10-29T15:12:38Z</time>
      </trkpt>
      <trkpt lat="42.86167" lon="0.20686">
        <ele>2386</ele>
        <time>2021-10-29T15:12:44Z</time>
      </trkpt>
      <trkpt lat="42.86173" lon="0.20688">
        <ele>2387</ele>
        <time>2021-10-29T15:12:49Z</time>
      </trkpt>
      <trkpt lat="42.86177" lon="0.20695">
        <ele>2387</ele>
        <time>2021-10-29T15:12:54Z</time>
      </trkpt>
      <trkpt lat="42.86199" lon="0.20697">
        <ele>2389</ele>
        <time>2021-10-29T15:13:12Z</time>
      </trkpt>
      <trkpt lat="42.86208" lon="0.20694">
        <ele>2390</ele>
        <time>2021-10-29T15:13:19Z</time>
      </trkpt>
      <trkpt lat="42.86215" lon="0.20696">
        <ele>2390</ele>
        <time>2021-10-29T15:13:25Z</time>
      </trkpt>
      <trkpt lat="42.86226" lon="0.20697">
        <ele>2391</ele>
        <time>2021-10-29T15:13:34Z</time>
      </trkpt>
      <trkpt lat="42.86246" lon="0.20705">
        <ele>2394</ele>
        <time>2021-10-29T15:13:50Z</time>
      </trkpt>
      <trkpt lat="42.86248" lon="0.20708">
        <ele>2394</ele>
        <time>2021-10-29T15:13:53Z</time>
      </trkpt>
      <trkpt lat="42.86262" lon="0.20712">
        <ele>2397</ele>
        <time>2021-10-29T15:14:04Z</time>
      </trkpt>
      <trkpt lat="42.86267" lon="0.20711">
        <ele>2397</ele>
        <time>2021-10-29T15:14:08Z</time>
      </trkpt>
      <trkpt lat="42.86271" lon="0.20718">
        <ele>2399</ele>
        <time>2021-10-29T15:14:13Z</time>
      </trkpt>
      <trkpt lat="42.86288" lon="0.20727">
        <ele>2402</ele>
        <time>2021-10-29T15:14:28Z</time>
      </trkpt>
      <trkpt lat="42.86292" lon="0.20722">
        <ele>2402</ele>
        <time>2021-10-29T15:14:32Z</time>
      </trkpt>
      <trkpt lat="42.86298" lon="0.20723">
        <ele>2403</ele>
        <time>2021-10-29T15:14:37Z</time>
      </trkpt>
      <trkpt lat="42.86305" lon="0.20714">
        <ele>2404</ele>
        <time>2021-10-29T15:14:45Z</time>
      </trkpt>
      <trkpt lat="42.86311" lon="0.20712">
        <ele>2404</ele>
        <time>2021-10-29T15:14:50Z</time>
      </trkpt>
      <trkpt lat="42.86331" lon="0.20721">
        <ele>2408</ele>
        <time>2021-10-29T15:15:07Z</time>
      </trkpt>
      <trkpt lat="42.86342" lon="0.2072">
        <ele>2409</ele>
        <time>2021-10-29T15:15:16Z</time>
      </trkpt>
      <trkpt lat="42.86347" lon="0.20723">
        <ele>2410</ele>
        <time>2021-10-29T15:15:20Z</time>
      </trkpt>
      <trkpt lat="42.86368" lon="0.20706">
        <ele>2411</ele>
        <time>2021-10-29T15:15:39Z</time>
      </trkpt>
      <trkpt lat="42.86373" lon="0.207">
        <ele>2411</ele>
        <time>2021-10-29T15:15:45Z</time>
      </trkpt>
      <trkpt lat="42.86378" lon="0.20698">
        <ele>2411</ele>
        <time>2021-10-29T15:15:49Z</time>
      </trkpt>
      <trkpt lat="42.86389" lon="0.20701">
        <ele>2412</ele>
        <time>2021-10-29T15:15:58Z</time>
      </trkpt>
      <trkpt lat="42.86393" lon="0.20699">
        <ele>2413</ele>
        <time>2021-10-29T15:16:01Z</time>
      </trkpt>
      <trkpt lat="42.86401" lon="0.20699">
        <ele>2413</ele>
        <time>2021-10-29T15:16:08Z</time>
      </trkpt>
      <trkpt lat="42.86407" lon="0.20696">
        <ele>2414</ele>
        <time>2021-10-29T15:16:13Z</time>
      </trkpt>
      <trkpt lat="42.86416" lon="0.20698">
        <ele>2415</ele>
        <time>2021-10-29T15:16:20Z</time>
      </trkpt>
      <trkpt lat="42.8642" lon="0.20696">
        <ele>2415</ele>
        <time>2021-10-29T15:16:24Z</time>
      </trkpt>
      <trkpt lat="42.86426" lon="0.20699">
        <ele>2415</ele>
        <time>2021-10-29T15:16:29Z</time>
      </trkpt>
      <trkpt lat="42.86437" lon="0.207">
        <ele>2416</ele>
        <time>2021-10-29T15:16:38Z</time>
      </trkpt>
      <trkpt lat="42.86452" lon="0.20706">
        <ele>2418</ele>
        <time>2021-10-29T15:16:50Z</time>
      </trkpt>
      <trkpt lat="42.86461" lon="0.20702">
        <ele>2418</ele>
        <time>2021-10-29T15:16:58Z</time>
      </trkpt>
      <trkpt lat="42.86473" lon="0.20703">
        <ele>2419</ele>
        <time>2021-10-29T15:17:07Z</time>
      </trkpt>
      <trkpt lat="42.86477" lon="0.20698">
        <ele>2419</ele>
        <time>2021-10-29T15:17:12Z</time>
      </trkpt>
      <trkpt lat="42.86482" lon="0.20698">
        <ele>2420</ele>
        <time>2021-10-29T15:17:16Z</time>
      </trkpt>
      <trkpt lat="42.86495" lon="0.20678">
        <ele>2419</ele>
        <time>2021-10-29T15:17:31Z</time>
      </trkpt>
      <trkpt lat="42.86505" lon="0.20674">
        <ele>2421</ele>
        <time>2021-10-29T15:17:40Z</time>
      </trkpt>
      <trkpt lat="42.86511" lon="0.20666">
        <ele>2422</ele>
        <time>2021-10-29T15:17:46Z</time>
      </trkpt>
      <trkpt lat="42.86519" lon="0.20666">
        <ele>2424</ele>
        <time>2021-10-29T15:17:53Z</time>
      </trkpt>
      <trkpt lat="42.86524" lon="0.20655">
        <ele>2426</ele>
        <time>2021-10-29T15:18:00Z</time>
      </trkpt>
      <trkpt lat="42.8653" lon="0.20654">
        <ele>2428</ele>
        <time>2021-10-29T15:18:05Z</time>
      </trkpt>
      <trkpt lat="42.86537" lon="0.20658">
        <ele>2429</ele>
        <time>2021-10-29T15:18:11Z</time>
      </trkpt>
      <trkpt lat="42.86539" lon="0.20656">
        <ele>2430</ele>
        <time>2021-10-29T15:18:13Z</time>
      </trkpt>
      <trkpt lat="42.86542" lon="0.20657">
        <ele>2430</ele>
        <time>2021-10-29T15:18:16Z</time>
      </trkpt>
      <trkpt lat="42.86549" lon="0.20653">
        <ele>2433</ele>
        <time>2021-10-29T15:18:22Z</time>
      </trkpt>
      <trkpt lat="42.86559" lon="0.20651">
        <ele>2435</ele>
        <time>2021-10-29T15:18:30Z</time>
      </trkpt>
      <trkpt lat="42.86575" lon="0.2066">
        <ele>2438</ele>
        <time>2021-10-29T15:18:44Z</time>
      </trkpt>
      <trkpt lat="42.86577" lon="0.20663">
        <ele>2439</ele>
        <time>2021-10-29T15:18:46Z</time>
      </trkpt>
      <trkpt lat="42.86596" lon="0.20666">
        <ele>2446</ele>
        <time>2021-10-29T15:19:01Z</time>
      </trkpt>
      <trkpt lat="42.86599" lon="0.20672">
        <ele>2449</ele>
        <time>2021-10-29T15:19:06Z</time>
      </trkpt>
      <trkpt lat="42.86604" lon="0.20673">
        <ele>2452</ele>
        <time>2021-10-29T15:19:10Z</time>
      </trkpt>
      <trkpt lat="42.86606" lon="0.20676">
        <ele>2454</ele>
        <time>2021-10-29T15:19:12Z</time>
      </trkpt>
      <trkpt lat="42.86608" lon="0.20676">
        <ele>2455</ele>
        <time>2021-10-29T15:19:14Z</time>
      </trkpt>
      <trkpt lat="42.86609" lon="0.20681">
        <ele>2457</ele>
        <time>2021-10-29T15:19:17Z</time>
      </trkpt>
      <trkpt lat="42.86618" lon="0.20682">
        <ele>2462</ele>
        <time>2021-10-29T15:19:24Z</time>
      </trkpt>
      <trkpt lat="42.86617" lon="0.20688">
        <ele>2464</ele>
        <time>2021-10-29T15:19:28Z</time>
      </trkpt>
      <trkpt lat="42.8663" lon="0.20693">
        <ele>2472</ele>
        <time>2021-10-29T15:19:38Z</time>
      </trkpt>
      <trkpt lat="42.86645" lon="0.20682">
        <ele>2476</ele>
        <time>2021-10-29T15:19:52Z</time>
      </trkpt>
      <trkpt lat="42.86668" lon="0.2066">
        <ele>2480</ele>
        <time>2021-10-29T15:20:15Z</time>
      </trkpt>
      <trkpt lat="42.8667" lon="0.2066">
        <ele>2481</ele>
        <time>2021-10-29T15:20:16Z</time>
      </trkpt>
      <trkpt lat="42.86669" lon="0.20664">
        <ele>2480</ele>
        <time>2021-10-29T15:20:19Z</time>
      </trkpt>
      <trkpt lat="42.86671" lon="0.20667">
        <ele>2481</ele>
        <time>2021-10-29T15:20:21Z</time>
      </trkpt>
      <trkpt lat="42.86674" lon="0.20668">
        <ele>2481</ele>
        <time>2021-10-29T15:20:23Z</time>
      </trkpt>
      <trkpt lat="42.86678" lon="0.20666">
        <ele>2481</ele>
        <time>2021-10-29T15:20:27Z</time>
      </trkpt>
      <trkpt lat="42.86683" lon="0.2066">
        <ele>2482</ele>
        <time>2021-10-29T15:20:32Z</time>
      </trkpt>
      <trkpt lat="42.86684" lon="0.2065">
        <ele>2482</ele>
        <time>2021-10-29T15:20:38Z</time>
      </trkpt>
      <trkpt lat="42.86686" lon="0.20651">
        <ele>2482</ele>
        <time>2021-10-29T15:20:40Z</time>
      </trkpt>
      <trkpt lat="42.86687" lon="0.2065">
        <ele>2482</ele>
        <time>2021-10-29T15:20:41Z</time>
      </trkpt>
      <trkpt lat="42.86686" lon="0.20639">
        <ele>2482</ele>
        <time>2021-10-29T15:20:47Z</time>
      </trkpt>
      <trkpt lat="42.86689" lon="0.20638">
        <ele>2483</ele>
        <time>2021-10-29T15:20:50Z</time>
      </trkpt>
      <trkpt lat="42.86704" lon="0.20642">
        <ele>2484</ele>
        <time>2021-10-29T15:21:02Z</time>
      </trkpt>
      <trkpt lat="42.86706" lon="0.20646">
        <ele>2484</ele>
        <time>2021-10-29T15:21:05Z</time>
      </trkpt>
      <trkpt lat="42.86709" lon="0.20648">
        <ele>2484</ele>
        <time>2021-10-29T15:21:08Z</time>
      </trkpt>
      <trkpt lat="42.86712" lon="0.20648">
        <ele>2485</ele>
        <time>2021-10-29T15:21:10Z</time>
      </trkpt>
      <trkpt lat="42.86716" lon="0.20641">
        <ele>2485</ele>
        <time>2021-10-29T15:21:15Z</time>
      </trkpt>
      <trkpt lat="42.86717" lon="0.20641">
        <ele>2485</ele>
        <time>2021-10-29T15:21:16Z</time>
      </trkpt>
      <trkpt lat="42.86715" lon="0.2065">
        <ele>2485</ele>
        <time>2021-10-29T15:21:22Z</time>
      </trkpt>
      <trkpt lat="42.86716" lon="0.20658">
        <ele>2485</ele>
        <time>2021-10-29T15:21:26Z</time>
      </trkpt>
      <trkpt lat="42.86712" lon="0.20668">
        <ele>2485</ele>
        <time>2021-10-29T15:21:33Z</time>
      </trkpt>
      <trkpt lat="42.86712" lon="0.20684">
        <ele>2490</ele>
        <time>2021-10-29T15:21:42Z</time>
      </trkpt>
      <trkpt lat="42.8671" lon="0.20709">
        <ele>2498</ele>
        <time>2021-10-29T15:21:57Z</time>
      </trkpt>
      <trkpt lat="42.86706" lon="0.20724">
        <ele>2503</ele>
        <time>2021-10-29T15:22:06Z</time>
      </trkpt>
      <trkpt lat="42.86701" lon="0.20758">
        <ele>2516</ele>
        <time>2021-10-29T15:22:27Z</time>
      </trkpt>
      <trkpt lat="42.86697" lon="0.20759">
        <ele>2517</ele>
        <time>2021-10-29T15:22:30Z</time>
      </trkpt>
      <trkpt lat="42.86697" lon="0.20765">
        <ele>2519</ele>
        <time>2021-10-29T15:22:34Z</time>
      </trkpt>
      <trkpt lat="42.86687" lon="0.20764">
        <ele>2521</ele>
        <time>2021-10-29T15:22:42Z</time>
      </trkpt>
      <trkpt lat="42.86689" lon="0.20772">
        <ele>2524</ele>
        <time>2021-10-29T15:22:47Z</time>
      </trkpt>
      <trkpt lat="42.86689" lon="0.20779">
        <ele>2527</ele>
        <time>2021-10-29T15:22:51Z</time>
      </trkpt>
      <trkpt lat="42.86692" lon="0.20783">
        <ele>2528</ele>
        <time>2021-10-29T15:22:54Z</time>
      </trkpt>
      <trkpt lat="42.86691" lon="0.20794">
        <ele>2533</ele>
        <time>2021-10-29T15:23:01Z</time>
      </trkpt>
      <trkpt lat="42.86693" lon="0.20809">
        <ele>2539</ele>
        <time>2021-10-29T15:23:10Z</time>
      </trkpt>
      <trkpt lat="42.86679" lon="0.20812">
        <ele>2544</ele>
        <time>2021-10-29T15:23:21Z</time>
      </trkpt>
      <trkpt lat="42.86671" lon="0.2082">
        <ele>2550</ele>
        <time>2021-10-29T15:23:29Z</time>
      </trkpt>
      <trkpt lat="42.86671" lon="0.2083">
        <ele>2555</ele>
        <time>2021-10-29T15:23:35Z</time>
      </trkpt>
      <trkpt lat="42.86682" lon="0.2085">
        <ele>2561</ele>
        <time>2021-10-29T15:23:49Z</time>
      </trkpt>
      <trkpt lat="42.86682" lon="0.20886">
        <ele>2579</ele>
        <time>2021-10-29T15:24:10Z</time>
      </trkpt>
      <trkpt lat="42.86684" lon="0.20903">
        <ele>2586</ele>
        <time>2021-10-29T15:24:21Z</time>
      </trkpt>
      <trkpt lat="42.86689" lon="0.20926">
        <ele>2593</ele>
        <time>2021-10-29T15:24:35Z</time>
      </trkpt>
      <trkpt lat="42.86691" lon="0.20964">
        <ele>2604</ele>
        <time>2021-10-29T15:24:57Z</time>
      </trkpt>
      <trkpt lat="42.86686" lon="0.21007">
        <ele>2623</ele>
        <time>2021-10-29T15:25:23Z</time>
      </trkpt>
      <trkpt lat="42.86678" lon="0.21028">
        <ele>2637</ele>
        <time>2021-10-29T15:25:36Z</time>
      </trkpt>
      <trkpt lat="42.86674" lon="0.21051">
        <ele>2648</ele>
        <time>2021-10-29T15:25:50Z</time>
      </trkpt>
      <trkpt lat="42.86661" lon="0.21075">
        <ele>2660</ele>
        <time>2021-10-29T15:26:08Z</time>
      </trkpt>
      <trkpt lat="42.86657" lon="0.21093">
        <ele>2662</ele>
        <time>2021-10-29T15:26:19Z</time>
      </trkpt>
      <trkpt lat="42.8665" lon="0.21109">
        <ele>2661</ele>
        <time>2021-10-29T15:26:30Z</time>
      </trkpt>
      <trkpt lat="42.86659" lon="0.21122">
        <ele>2666</ele>
        <time>2021-10-29T15:26:40Z</time>
      </trkpt>
      <trkpt lat="42.86671" lon="0.21144">
        <ele>2670</ele>
        <time>2021-10-29T15:26:56Z</time>
      </trkpt>
      <trkpt lat="42.86686" lon="0.21159">
        <ele>2669</ele>
        <time>2021-10-29T15:27:11Z</time>
      </trkpt>
      <trkpt lat="42.86704" lon="0.21192">
        <ele>2666</ele>
        <time>2021-10-29T15:27:35Z</time>
      </trkpt>
      <trkpt lat="42.86727" lon="0.21215">
        <ele>2666</ele>
        <time>2021-10-29T15:27:58Z</time>
      </trkpt>
      <trkpt lat="42.86765" lon="0.21265">
        <ele>2665</ele>
        <time>2021-10-29T15:28:41Z</time>
      </trkpt>
      <trkpt lat="42.86804" lon="0.21308">
        <ele>2658</ele>
        <time>2021-10-29T15:29:21Z</time>
      </trkpt>
      <trkpt lat="42.86837" lon="0.21352">
        <ele>2663</ele>
        <time>2021-10-29T15:29:58Z</time>
      </trkpt>
      <trkpt lat="42.86863" lon="0.21365">
        <ele>2663</ele>
        <time>2021-10-29T15:30:20Z</time>
      </trkpt>
      <trkpt lat="42.86907" lon="0.21398">
        <ele>2674</ele>
        <time>2021-10-29T15:31:00Z</time>
      </trkpt>
      <trkpt lat="42.86919" lon="0.21411">
        <ele>2679</ele>
        <time>2021-10-29T15:31:12Z</time>
      </trkpt>
      <trkpt lat="42.8693" lon="0.21418">
        <ele>2675</ele>
        <time>2021-10-29T15:31:22Z</time>
      </trkpt>
      <trkpt lat="42.86942" lon="0.21429">
        <ele>2670</ele>
        <time>2021-10-29T15:31:34Z</time>
      </trkpt>
      <trkpt lat="42.86945" lon="0.21442">
        <ele>2669</ele>
        <time>2021-10-29T15:31:42Z</time>
      </trkpt>
      <trkpt lat="42.86947" lon="0.2147">
        <ele>2669</ele>
        <time>2021-10-29T15:31:58Z</time>
      </trkpt>
      <trkpt lat="42.86955" lon="0.21473">
        <ele>2665</ele>
        <time>2021-10-29T15:32:05Z</time>
      </trkpt>
      <trkpt lat="42.86961" lon="0.21483">
        <ele>2663</ele>
        <time>2021-10-29T15:32:12Z</time>
      </trkpt>
      <trkpt lat="42.86956" lon="0.21518">
        <ele>2667</ele>
        <time>2021-10-29T15:32:33Z</time>
      </trkpt>
      <trkpt lat="42.86956" lon="0.21533">
        <ele>2667</ele>
        <time>2021-10-29T15:32:42Z</time>
      </trkpt>
      <trkpt lat="42.86954" lon="0.2156">
        <ele>2668</ele>
        <time>2021-10-29T15:32:58Z</time>
      </trkpt>
      <trkpt lat="42.86952" lon="0.21572">
        <ele>2669</ele>
        <time>2021-10-29T15:33:05Z</time>
      </trkpt>
      <trkpt lat="42.86936" lon="0.21625">
        <ele>2667</ele>
        <time>2021-10-29T15:33:39Z</time>
      </trkpt>
      <trkpt lat="42.86923" lon="0.2164">
        <ele>2665</ele>
        <time>2021-10-29T15:33:52Z</time>
      </trkpt>
      <trkpt lat="42.86808" lon="0.21749">
        <ele>2605</ele>
        <time>2021-10-29T15:35:45Z</time>
      </trkpt>
      <trkpt lat="42.86815" lon="0.2175">
        <ele>2608</ele>
        <time>2021-10-29T15:35:50Z</time>
      </trkpt>
      <trkpt lat="42.86798" lon="0.21773">
        <ele>2597</ele>
        <time>2021-10-29T15:36:09Z</time>
      </trkpt>
      <trkpt lat="42.86785" lon="0.21804">
        <ele>2587</ele>
        <time>2021-10-29T15:36:30Z</time>
      </trkpt>
      <trkpt lat="42.86781" lon="0.21828">
        <ele>2582</ele>
        <time>2021-10-29T15:36:45Z</time>
      </trkpt>
      <trkpt lat="42.86768" lon="0.21842">
        <ele>2574</ele>
        <time>2021-10-29T15:36:58Z</time>
      </trkpt>
      <trkpt lat="42.86756" lon="0.21863">
        <ele>2565</ele>
        <time>2021-10-29T15:37:14Z</time>
      </trkpt>
      <trkpt lat="42.86751" lon="0.21883">
        <ele>2559</ele>
        <time>2021-10-29T15:37:26Z</time>
      </trkpt>
      <trkpt lat="42.86745" lon="0.21919">
        <ele>2549</ele>
        <time>2021-10-29T15:37:48Z</time>
      </trkpt>
      <trkpt lat="42.86735" lon="0.21958">
        <ele>2541</ele>
        <time>2021-10-29T15:38:12Z</time>
      </trkpt>
      <trkpt lat="42.86736" lon="0.21983">
        <ele>2536</ele>
        <time>2021-10-29T15:38:27Z</time>
      </trkpt>
      <trkpt lat="42.86733" lon="0.22052">
        <ele>2531</ele>
        <time>2021-10-29T15:39:07Z</time>
      </trkpt>
      <trkpt lat="42.86735" lon="0.22092">
        <ele>2529</ele>
        <time>2021-10-29T15:39:31Z</time>
      </trkpt>
      <trkpt lat="42.8674" lon="0.22121">
        <ele>2527</ele>
        <time>2021-10-29T15:39:48Z</time>
      </trkpt>
      <trkpt lat="42.86745" lon="0.22172">
        <ele>2523</ele>
        <time>2021-10-29T15:40:18Z</time>
      </trkpt>
      <trkpt lat="42.86744" lon="0.22196">
        <ele>2521</ele>
        <time>2021-10-29T15:40:33Z</time>
      </trkpt>
      <trkpt lat="42.86753" lon="0.22216">
        <ele>2519</ele>
        <time>2021-10-29T15:40:46Z</time>
      </trkpt>
      <trkpt lat="42.86754" lon="0.22246">
        <ele>2516</ele>
        <time>2021-10-29T15:41:04Z</time>
      </trkpt>
      <trkpt lat="42.86762" lon="0.2227">
        <ele>2509</ele>
        <time>2021-10-29T15:41:19Z</time>
      </trkpt>
      <trkpt lat="42.8676" lon="0.22299">
        <ele>2497</ele>
        <time>2021-10-29T15:41:36Z</time>
      </trkpt>
      <trkpt lat="42.86761" lon="0.22347">
        <ele>2476</ele>
        <time>2021-10-29T15:42:05Z</time>
      </trkpt>
      <trkpt lat="42.86765" lon="0.22394">
        <ele>2457</ele>
        <time>2021-10-29T15:42:32Z</time>
      </trkpt>
      <trkpt lat="42.86767" lon="0.22464">
        <ele>2434</ele>
        <time>2021-10-29T15:43:14Z</time>
      </trkpt>
      <trkpt lat="42.86762" lon="0.22475">
        <ele>2431</ele>
        <time>2021-10-29T15:43:21Z</time>
      </trkpt>
      <trkpt lat="42.86747" lon="0.22515">
        <ele>2421</ele>
        <time>2021-10-29T15:43:48Z</time>
      </trkpt>
      <trkpt lat="42.86725" lon="0.22553">
        <ele>2417</ele>
        <time>2021-10-29T15:44:16Z</time>
      </trkpt>
      <trkpt lat="42.86697" lon="0.22593">
        <ele>2407</ele>
        <time>2021-10-29T15:44:48Z</time>
      </trkpt>
      <trkpt lat="42.86691" lon="0.22597">
        <ele>2406</ele>
        <time>2021-10-29T15:44:54Z</time>
      </trkpt>
      <trkpt lat="42.86678" lon="0.22588">
        <ele>2405</ele>
        <time>2021-10-29T15:45:05Z</time>
      </trkpt>
      <trkpt lat="42.86669" lon="0.22592">
        <ele>2404</ele>
        <time>2021-10-29T15:45:13Z</time>
      </trkpt>
      <trkpt lat="42.86638" lon="0.22641">
        <ele>2403</ele>
        <time>2021-10-29T15:45:51Z</time>
      </trkpt>
      <trkpt lat="42.86611" lon="0.22655">
        <ele>2402</ele>
        <time>2021-10-29T15:46:14Z</time>
      </trkpt>
      <trkpt lat="42.86596" lon="0.22679">
        <ele>2395</ele>
        <time>2021-10-29T15:46:33Z</time>
      </trkpt>
      <trkpt lat="42.8657" lon="0.22699">
        <ele>2396</ele>
        <time>2021-10-29T15:46:57Z</time>
      </trkpt>
      <trkpt lat="42.86573" lon="0.22706">
        <ele>2393</ele>
        <time>2021-10-29T15:47:01Z</time>
      </trkpt>
      <trkpt lat="42.86562" lon="0.22719">
        <ele>2393</ele>
        <time>2021-10-29T15:47:13Z</time>
      </trkpt>
      <trkpt lat="42.86544" lon="0.22763">
        <ele>2386</ele>
        <time>2021-10-29T15:47:42Z</time>
      </trkpt>
      <trkpt lat="42.86533" lon="0.22785">
        <ele>2383</ele>
        <time>2021-10-29T15:47:58Z</time>
      </trkpt>
      <trkpt lat="42.86521" lon="0.22836">
        <ele>2371</ele>
        <time>2021-10-29T15:48:30Z</time>
      </trkpt>
      <trkpt lat="42.86519" lon="0.22856">
        <ele>2367</ele>
        <time>2021-10-29T15:48:41Z</time>
      </trkpt>
      <trkpt lat="42.86504" lon="0.22891">
        <ele>2358</ele>
        <time>2021-10-29T15:49:05Z</time>
      </trkpt>
      <trkpt lat="42.86484" lon="0.22922">
        <ele>2356</ele>
        <time>2021-10-29T15:49:29Z</time>
      </trkpt>
      <trkpt lat="42.86466" lon="0.23006">
        <ele>2331</ele>
        <time>2021-10-29T15:50:21Z</time>
      </trkpt>
      <trkpt lat="42.8644" lon="0.23054">
        <ele>2316</ele>
        <time>2021-10-29T15:50:56Z</time>
      </trkpt>
      <trkpt lat="42.86416" lon="0.23093">
        <ele>2301</ele>
        <time>2021-10-29T15:51:26Z</time>
      </trkpt>
      <trkpt lat="42.86389" lon="0.23127">
        <ele>2295</ele>
        <time>2021-10-29T15:51:55Z</time>
      </trkpt>
      <trkpt lat="42.86374" lon="0.23165">
        <ele>2283</ele>
        <time>2021-10-29T15:52:20Z</time>
      </trkpt>
      <trkpt lat="42.8636" lon="0.23185">
        <ele>2276</ele>
        <time>2021-10-29T15:52:37Z</time>
      </trkpt>
      <trkpt lat="42.86356" lon="0.23201">
        <ele>2271</ele>
        <time>2021-10-29T15:52:47Z</time>
      </trkpt>
      <trkpt lat="42.86358" lon="0.23227">
        <ele>2263</ele>
        <time>2021-10-29T15:53:02Z</time>
      </trkpt>
      <trkpt lat="42.86364" lon="0.23241">
        <ele>2258</ele>
        <time>2021-10-29T15:53:11Z</time>
      </trkpt>
      <trkpt lat="42.86372" lon="0.23255">
        <ele>2255</ele>
        <time>2021-10-29T15:53:22Z</time>
      </trkpt>
      <trkpt lat="42.86372" lon="0.23275">
        <ele>2252</ele>
        <time>2021-10-29T15:53:34Z</time>
      </trkpt>
      <trkpt lat="42.86382" lon="0.23305">
        <ele>2248</ele>
        <time>2021-10-29T15:53:53Z</time>
      </trkpt>
      <trkpt lat="42.86375" lon="0.23337">
        <ele>2244</ele>
        <time>2021-10-29T15:54:13Z</time>
      </trkpt>
      <trkpt lat="42.86393" lon="0.23411">
        <ele>2234</ele>
        <time>2021-10-29T15:54:58Z</time>
      </trkpt>
      <trkpt lat="42.86395" lon="0.23431">
        <ele>2230</ele>
        <time>2021-10-29T15:55:10Z</time>
      </trkpt>
      <trkpt lat="42.86402" lon="0.23463">
        <ele>2224</ele>
        <time>2021-10-29T15:55:30Z</time>
      </trkpt>
      <trkpt lat="42.86406" lon="0.23476">
        <ele>2221</ele>
        <time>2021-10-29T15:55:38Z</time>
      </trkpt>
      <trkpt lat="42.86406" lon="0.23496">
        <ele>2217</ele>
        <time>2021-10-29T15:55:50Z</time>
      </trkpt>
      <trkpt lat="42.86401" lon="0.2352">
        <ele>2212</ele>
        <time>2021-10-29T15:56:04Z</time>
      </trkpt>
      <trkpt lat="42.86395" lon="0.23532">
        <ele>2210</ele>
        <time>2021-10-29T15:56:13Z</time>
      </trkpt>
      <trkpt lat="42.86393" lon="0.23552">
        <ele>2206</ele>
        <time>2021-10-29T15:56:25Z</time>
      </trkpt>
      <trkpt lat="42.86391" lon="0.23577">
        <ele>2200</ele>
        <time>2021-10-29T15:56:40Z</time>
      </trkpt>
      <trkpt lat="42.86395" lon="0.23615">
        <ele>2186</ele>
        <time>2021-10-29T15:57:02Z</time>
      </trkpt>
      <trkpt lat="42.86387" lon="0.2362">
        <ele>2184</ele>
        <time>2021-10-29T15:57:09Z</time>
      </trkpt>
      <trkpt lat="42.86366" lon="0.23618">
        <ele>2185</ele>
        <time>2021-10-29T15:57:26Z</time>
      </trkpt>
      <trkpt lat="42.86362" lon="0.23623">
        <ele>2183</ele>
        <time>2021-10-29T15:57:30Z</time>
      </trkpt>
      <trkpt lat="42.86362" lon="0.2363">
        <ele>2180</ele>
        <time>2021-10-29T15:57:34Z</time>
      </trkpt>
      <trkpt lat="42.86352" lon="0.23638">
        <ele>2177</ele>
        <time>2021-10-29T15:57:44Z</time>
      </trkpt>
      <trkpt lat="42.86356" lon="0.23644">
        <ele>2175</ele>
        <time>2021-10-29T15:57:48Z</time>
      </trkpt>
      <trkpt lat="42.86348" lon="0.23647">
        <ele>2174</ele>
        <time>2021-10-29T15:57:55Z</time>
      </trkpt>
      <trkpt lat="42.86352" lon="0.23655">
        <ele>2170</ele>
        <time>2021-10-29T15:58:01Z</time>
      </trkpt>
      <trkpt lat="42.86347" lon="0.23664">
        <ele>2167</ele>
        <time>2021-10-29T15:58:07Z</time>
      </trkpt>
      <trkpt lat="42.86338" lon="0.23686">
        <ele>2160</ele>
        <time>2021-10-29T15:58:22Z</time>
      </trkpt>
      <trkpt lat="42.86321" lon="0.23723">
        <ele>2149</ele>
        <time>2021-10-29T15:58:48Z</time>
      </trkpt>
      <trkpt lat="42.8628" lon="0.23756">
        <ele>2140</ele>
        <time>2021-10-29T15:59:26Z</time>
      </trkpt>
      <trkpt lat="42.86246" lon="0.23803">
        <ele>2133</ele>
        <time>2021-10-29T16:00:05Z</time>
      </trkpt>
      <trkpt lat="42.86221" lon="0.23826">
        <ele>2127</ele>
        <time>2021-10-29T16:00:29Z</time>
      </trkpt>
      <trkpt lat="42.8621" lon="0.2384">
        <ele>2124</ele>
        <time>2021-10-29T16:00:41Z</time>
      </trkpt>
      <trkpt lat="42.86206" lon="0.23868">
        <ele>2121</ele>
        <time>2021-10-29T16:00:58Z</time>
      </trkpt>
      <trkpt lat="42.86197" lon="0.23889">
        <ele>2118</ele>
        <time>2021-10-29T16:01:12Z</time>
      </trkpt>
      <trkpt lat="42.86195" lon="0.23904">
        <ele>2117</ele>
        <time>2021-10-29T16:01:21Z</time>
      </trkpt>
      <trkpt lat="42.86202" lon="0.2391">
        <ele>2117</ele>
        <time>2021-10-29T16:01:27Z</time>
      </trkpt>
      <trkpt lat="42.86205" lon="0.23927">
        <ele>2117</ele>
        <time>2021-10-29T16:01:38Z</time>
      </trkpt>
      <trkpt lat="42.86196" lon="0.2395">
        <ele>2116</ele>
        <time>2021-10-29T16:01:53Z</time>
      </trkpt>
      <trkpt lat="42.86168" lon="0.23987">
        <ele>2113</ele>
        <time>2021-10-29T16:02:24Z</time>
      </trkpt>
      <trkpt lat="42.86143" lon="0.2399">
        <ele>2108</ele>
        <time>2021-10-29T16:02:44Z</time>
      </trkpt>
      <trkpt lat="42.86131" lon="0.23988">
        <ele>2106</ele>
        <time>2021-10-29T16:02:54Z</time>
      </trkpt>
      <trkpt lat="42.86125" lon="0.24002">
        <ele>2104</ele>
        <time>2021-10-29T16:03:04Z</time>
      </trkpt>
      <trkpt lat="42.86087" lon="0.24036">
        <ele>2091</ele>
        <time>2021-10-29T16:03:40Z</time>
      </trkpt>
      <trkpt lat="42.86064" lon="0.24042">
        <ele>2088</ele>
        <time>2021-10-29T16:03:59Z</time>
      </trkpt>
      <trkpt lat="42.86034" lon="0.24047">
        <ele>2085</ele>
        <time>2021-10-29T16:04:23Z</time>
      </trkpt>
      <trkpt lat="42.86017" lon="0.24059">
        <ele>2080</ele>
        <time>2021-10-29T16:04:38Z</time>
      </trkpt>
      <trkpt lat="42.85984" lon="0.24091">
        <ele>2068</ele>
        <time>2021-10-29T16:05:11Z</time>
      </trkpt>
      <trkpt lat="42.8597" lon="0.24111">
        <ele>2061</ele>
        <time>2021-10-29T16:05:27Z</time>
      </trkpt>
      <trkpt lat="42.85941" lon="0.24135">
        <ele>2049</ele>
        <time>2021-10-29T16:05:54Z</time>
      </trkpt>
      <trkpt lat="42.85927" lon="0.2416">
        <ele>2038</ele>
        <time>2021-10-29T16:06:12Z</time>
      </trkpt>
      <trkpt lat="42.85928" lon="0.24181">
        <ele>2030</ele>
        <time>2021-10-29T16:06:25Z</time>
      </trkpt>
      <trkpt lat="42.85916" lon="0.24189">
        <ele>2025</ele>
        <time>2021-10-29T16:06:36Z</time>
      </trkpt>
      <trkpt lat="42.8589" lon="0.242">
        <ele>2017</ele>
        <time>2021-10-29T16:06:57Z</time>
      </trkpt>
      <trkpt lat="42.85864" lon="0.24195">
        <ele>2016</ele>
        <time>2021-10-29T16:07:18Z</time>
      </trkpt>
      <trkpt lat="42.85828" lon="0.24198">
        <ele>2011</ele>
        <time>2021-10-29T16:07:47Z</time>
      </trkpt>
      <trkpt lat="42.85809" lon="0.24204">
        <ele>2007</ele>
        <time>2021-10-29T16:08:03Z</time>
      </trkpt>
      <trkpt lat="42.858" lon="0.24239">
        <ele>1993</ele>
        <time>2021-10-29T16:08:25Z</time>
      </trkpt>
      <trkpt lat="42.85801" lon="0.24269">
        <ele>1982</ele>
        <time>2021-10-29T16:08:42Z</time>
      </trkpt>
      <trkpt lat="42.85797" lon="0.24308">
        <ele>1966</ele>
        <time>2021-10-29T16:09:05Z</time>
      </trkpt>
      <trkpt lat="42.85788" lon="0.24359">
        <ele>1949</ele>
        <time>2021-10-29T16:09:36Z</time>
      </trkpt>
      <trkpt lat="42.85761" lon="0.24393">
        <ele>1933</ele>
        <time>2021-10-29T16:10:06Z</time>
      </trkpt>
      <trkpt lat="42.85734" lon="0.24419">
        <ele>1924</ele>
        <time>2021-10-29T16:10:32Z</time>
      </trkpt>
      <trkpt lat="42.8571" lon="0.24447">
        <ele>1920</ele>
        <time>2021-10-29T16:10:57Z</time>
      </trkpt>
      <trkpt lat="42.85702" lon="0.24469">
        <ele>1915</ele>
        <time>2021-10-29T16:11:12Z</time>
      </trkpt>
      <trkpt lat="42.85687" lon="0.24486">
        <ele>1909</ele>
        <time>2021-10-29T16:11:27Z</time>
      </trkpt>
      <trkpt lat="42.85668" lon="0.24551">
        <ele>1890</ele>
        <time>2021-10-29T16:12:08Z</time>
      </trkpt>
      <trkpt lat="42.85651" lon="0.24587">
        <ele>1881</ele>
        <time>2021-10-29T16:12:34Z</time>
      </trkpt>
      <trkpt lat="42.85654" lon="0.24609">
        <ele>1877</ele>
        <time>2021-10-29T16:12:47Z</time>
      </trkpt>
      <trkpt lat="42.85638" lon="0.2466">
        <ele>1868</ele>
        <time>2021-10-29T16:13:19Z</time>
      </trkpt>
      <trkpt lat="42.85631" lon="0.2468">
        <ele>1865</ele>
        <time>2021-10-29T16:13:32Z</time>
      </trkpt>
      <trkpt lat="42.85624" lon="0.24707">
        <ele>1863</ele>
        <time>2021-10-29T16:13:49Z</time>
      </trkpt>
      <trkpt lat="42.85612" lon="0.24725">
        <ele>1862</ele>
        <time>2021-10-29T16:14:03Z</time>
      </trkpt>
      <trkpt lat="42.8563" lon="0.24764">
        <ele>1859</ele>
        <time>2021-10-29T16:14:30Z</time>
      </trkpt>
      <trkpt lat="42.8564" lon="0.2479">
        <ele>1857</ele>
        <time>2021-10-29T16:14:48Z</time>
      </trkpt>
      <trkpt lat="42.85656" lon="0.24871">
        <ele>1856</ele>
        <time>2021-10-29T16:15:37Z</time>
      </trkpt>
      <trkpt lat="42.85655" lon="0.2489">
        <ele>1856</ele>
        <time>2021-10-29T16:15:48Z</time>
      </trkpt>
      <trkpt lat="42.85651" lon="0.24913">
        <ele>1856</ele>
        <time>2021-10-29T16:16:02Z</time>
      </trkpt>
      <trkpt lat="42.85637" lon="0.24938">
        <ele>1854</ele>
        <time>2021-10-29T16:16:20Z</time>
      </trkpt>
      <trkpt lat="42.85641" lon="0.24963">
        <ele>1854</ele>
        <time>2021-10-29T16:16:35Z</time>
      </trkpt>
      <trkpt lat="42.85643" lon="0.24998">
        <ele>1854</ele>
        <time>2021-10-29T16:16:56Z</time>
      </trkpt>
      <trkpt lat="42.85656" lon="0.25033">
        <ele>1854</ele>
        <time>2021-10-29T16:17:19Z</time>
      </trkpt>
      <trkpt lat="42.85652" lon="0.25047">
        <ele>1852</ele>
        <time>2021-10-29T16:17:28Z</time>
      </trkpt>
      <trkpt lat="42.85654" lon="0.25065">
        <ele>1852</ele>
        <time>2021-10-29T16:17:39Z</time>
      </trkpt>
      <trkpt lat="42.85652" lon="0.25082">
        <ele>1850</ele>
        <time>2021-10-29T16:17:49Z</time>
      </trkpt>
      <trkpt lat="42.85652" lon="0.25101">
        <ele>1846</ele>
        <time>2021-10-29T16:18:00Z</time>
      </trkpt>
      <trkpt lat="42.85654" lon="0.25113">
        <ele>1844</ele>
        <time>2021-10-29T16:18:07Z</time>
      </trkpt>
      <trkpt lat="42.85656" lon="0.25135">
        <ele>1839</ele>
        <time>2021-10-29T16:18:20Z</time>
      </trkpt>
      <trkpt lat="42.85664" lon="0.25157">
        <ele>1834</ele>
        <time>2021-10-29T16:18:34Z</time>
      </trkpt>
      <trkpt lat="42.85665" lon="0.2517">
        <ele>1830</ele>
        <time>2021-10-29T16:18:42Z</time>
      </trkpt>
      <trkpt lat="42.85669" lon="0.25181">
        <ele>1828</ele>
        <time>2021-10-29T16:18:49Z</time>
      </trkpt>
      <trkpt lat="42.85671" lon="0.25198">
        <ele>1823</ele>
        <time>2021-10-29T16:18:59Z</time>
      </trkpt>
      <trkpt lat="42.85677" lon="0.25204">
        <ele>1823</ele>
        <time>2021-10-29T16:19:05Z</time>
      </trkpt>
      <trkpt lat="42.85687" lon="0.25227">
        <ele>1818</ele>
        <time>2021-10-29T16:19:21Z</time>
      </trkpt>
      <trkpt lat="42.85692" lon="0.25231">
        <ele>1817</ele>
        <time>2021-10-29T16:19:26Z</time>
      </trkpt>
      <trkpt lat="42.85693" lon="0.2524">
        <ele>1814</ele>
        <time>2021-10-29T16:19:31Z</time>
      </trkpt>
      <trkpt lat="42.85698" lon="0.25247">
        <ele>1813</ele>
        <time>2021-10-29T16:19:37Z</time>
      </trkpt>
      <trkpt lat="42.85709" lon="0.25251">
        <ele>1813</ele>
        <time>2021-10-29T16:19:46Z</time>
      </trkpt>
      <trkpt lat="42.85746" lon="0.25311">
        <ele>1794</ele>
        <time>2021-10-29T16:20:32Z</time>
      </trkpt>
      <trkpt lat="42.85764" lon="0.25352">
        <ele>1785</ele>
        <time>2021-10-29T16:21:00Z</time>
      </trkpt>
      <trkpt lat="42.85773" lon="0.25381">
        <ele>1780</ele>
        <time>2021-10-29T16:21:18Z</time>
      </trkpt>
      <trkpt lat="42.85778" lon="0.25406">
        <ele>1773</ele>
        <time>2021-10-29T16:21:34Z</time>
      </trkpt>
      <trkpt lat="42.85796" lon="0.25446">
        <ele>1766</ele>
        <time>2021-10-29T16:22:01Z</time>
      </trkpt>
      <trkpt lat="42.858" lon="0.2547">
        <ele>1760</ele>
        <time>2021-10-29T16:22:16Z</time>
      </trkpt>
      <trkpt lat="42.85809" lon="0.25485">
        <ele>1753</ele>
        <time>2021-10-29T16:22:27Z</time>
      </trkpt>
      <trkpt lat="42.85818" lon="0.25495">
        <ele>1747</ele>
        <time>2021-10-29T16:22:36Z</time>
      </trkpt>
      <trkpt lat="42.85829" lon="0.25502">
        <ele>1741</ele>
        <time>2021-10-29T16:22:46Z</time>
      </trkpt>
      <trkpt lat="42.85835" lon="0.2552">
        <ele>1736</ele>
        <time>2021-10-29T16:22:58Z</time>
      </trkpt>
      <trkpt lat="42.85866" lon="0.25543">
        <ele>1733</ele>
        <time>2021-10-29T16:23:26Z</time>
      </trkpt>
      <trkpt lat="42.85872" lon="0.25561">
        <ele>1727</ele>
        <time>2021-10-29T16:23:38Z</time>
      </trkpt>
      <trkpt lat="42.85878" lon="0.2557">
        <ele>1724</ele>
        <time>2021-10-29T16:23:45Z</time>
      </trkpt>
      <trkpt lat="42.85889" lon="0.25575">
        <ele>1722</ele>
        <time>2021-10-29T16:23:54Z</time>
      </trkpt>
      <trkpt lat="42.85897" lon="0.25589">
        <ele>1716</ele>
        <time>2021-10-29T16:24:04Z</time>
      </trkpt>
      <trkpt lat="42.85898" lon="0.25601">
        <ele>1713</ele>
        <time>2021-10-29T16:24:11Z</time>
      </trkpt>
      <trkpt lat="42.85901" lon="0.25611">
        <ele>1710</ele>
        <time>2021-10-29T16:24:18Z</time>
      </trkpt>
      <trkpt lat="42.85905" lon="0.25614">
        <ele>1709</ele>
        <time>2021-10-29T16:24:21Z</time>
      </trkpt>
      <trkpt lat="42.85908" lon="0.25624">
        <ele>1705</ele>
        <time>2021-10-29T16:24:28Z</time>
      </trkpt>
      <trkpt lat="42.85908" lon="0.25637">
        <ele>1702</ele>
        <time>2021-10-29T16:24:35Z</time>
      </trkpt>
      <trkpt lat="42.85917" lon="0.25686">
        <ele>1685</ele>
        <time>2021-10-29T16:25:05Z</time>
      </trkpt>
      <trkpt lat="42.85924" lon="0.25696">
        <ele>1685</ele>
        <time>2021-10-29T16:25:13Z</time>
      </trkpt>
      <trkpt lat="42.85929" lon="0.25707">
        <ele>1684</ele>
        <time>2021-10-29T16:25:21Z</time>
      </trkpt>
      <trkpt lat="42.85932" lon="0.25738">
        <ele>1677</ele>
        <time>2021-10-29T16:25:39Z</time>
      </trkpt>
      <trkpt lat="42.8594" lon="0.25773">
        <ele>1669</ele>
        <time>2021-10-29T16:26:01Z</time>
      </trkpt>
      <trkpt lat="42.85941" lon="0.25785">
        <ele>1666</ele>
        <time>2021-10-29T16:26:08Z</time>
      </trkpt>
      <trkpt lat="42.85951" lon="0.25805">
        <ele>1664</ele>
        <time>2021-10-29T16:26:22Z</time>
      </trkpt>
      <trkpt lat="42.85952" lon="0.25826">
        <ele>1659</ele>
        <time>2021-10-29T16:26:34Z</time>
      </trkpt>
      <trkpt lat="42.8596" lon="0.25852">
        <ele>1657</ele>
        <time>2021-10-29T16:26:51Z</time>
      </trkpt>
      <trkpt lat="42.85956" lon="0.25878">
        <ele>1651</ele>
        <time>2021-10-29T16:27:06Z</time>
      </trkpt>
      <trkpt lat="42.8595" lon="0.25892">
        <ele>1646</ele>
        <time>2021-10-29T16:27:16Z</time>
      </trkpt>
      <trkpt lat="42.85947" lon="0.25907">
        <ele>1642</ele>
        <time>2021-10-29T16:27:25Z</time>
      </trkpt>
      <trkpt lat="42.85939" lon="0.25917">
        <ele>1637</ele>
        <time>2021-10-29T16:27:34Z</time>
      </trkpt>
      <trkpt lat="42.85934" lon="0.25947">
        <ele>1633</ele>
        <time>2021-10-29T16:27:52Z</time>
      </trkpt>
      <trkpt lat="42.8592" lon="0.25966">
        <ele>1625</ele>
        <time>2021-10-29T16:28:08Z</time>
      </trkpt>
      <trkpt lat="42.85878" lon="0.26067">
        <ele>1612</ele>
        <time>2021-10-29T16:29:16Z</time>
      </trkpt>
      <trkpt lat="42.85856" lon="0.26092">
        <ele>1604</ele>
        <time>2021-10-29T16:29:39Z</time>
      </trkpt>
      <trkpt lat="42.85835" lon="0.26144">
        <ele>1600</ele>
        <time>2021-10-29T16:30:14Z</time>
      </trkpt>
      <trkpt lat="42.85826" lon="0.26176">
        <ele>1599</ele>
        <time>2021-10-29T16:30:34Z</time>
      </trkpt>
      <trkpt lat="42.85814" lon="0.26196">
        <ele>1595</ele>
        <time>2021-10-29T16:30:49Z</time>
      </trkpt>
      <trkpt lat="42.85811" lon="0.26216">
        <ele>1595</ele>
        <time>2021-10-29T16:31:01Z</time>
      </trkpt>
      <trkpt lat="42.85812" lon="0.26293">
        <ele>1600</ele>
        <time>2021-10-29T16:31:46Z</time>
      </trkpt>
      <trkpt lat="42.85795" lon="0.26331">
        <ele>1593</ele>
        <time>2021-10-29T16:32:12Z</time>
      </trkpt>
      <trkpt lat="42.8579" lon="0.26354">
        <ele>1590</ele>
        <time>2021-10-29T16:32:26Z</time>
      </trkpt>
      <trkpt lat="42.85781" lon="0.26376">
        <ele>1585</ele>
        <time>2021-10-29T16:32:41Z</time>
      </trkpt>
      <trkpt lat="42.85772" lon="0.26415">
        <ele>1579</ele>
        <time>2021-10-29T16:33:05Z</time>
      </trkpt>
      <trkpt lat="42.8577" lon="0.26442">
        <ele>1577</ele>
        <time>2021-10-29T16:33:21Z</time>
      </trkpt>
      <trkpt lat="42.85766" lon="0.26463">
        <ele>1574</ele>
        <time>2021-10-29T16:33:34Z</time>
      </trkpt>
      <trkpt lat="42.85759" lon="0.26517">
        <ele>1569</ele>
        <time>2021-10-29T16:34:06Z</time>
      </trkpt>
      <trkpt lat="42.85754" lon="0.26546">
        <ele>1568</ele>
        <time>2021-10-29T16:34:23Z</time>
      </trkpt>
      <trkpt lat="42.85755" lon="0.26554">
        <ele>1568</ele>
        <time>2021-10-29T16:34:28Z</time>
      </trkpt>
      <trkpt lat="42.8575" lon="0.26564">
        <ele>1566</ele>
        <time>2021-10-29T16:34:35Z</time>
      </trkpt>
      <trkpt lat="42.8575" lon="0.26575">
        <ele>1567</ele>
        <time>2021-10-29T16:34:42Z</time>
      </trkpt>
      <trkpt lat="42.85745" lon="0.26591">
        <ele>1564</ele>
        <time>2021-10-29T16:34:52Z</time>
      </trkpt>
      <trkpt lat="42.85744" lon="0.26619">
        <ele>1562</ele>
        <time>2021-10-29T16:35:08Z</time>
      </trkpt>
      <trkpt lat="42.85739" lon="0.2664">
        <ele>1559</ele>
        <time>2021-10-29T16:35:21Z</time>
      </trkpt>
      <trkpt lat="42.85729" lon="0.26663">
        <ele>1554</ele>
        <time>2021-10-29T16:35:37Z</time>
      </trkpt>
      <trkpt lat="42.85727" lon="0.26672">
        <ele>1552</ele>
        <time>2021-10-29T16:35:43Z</time>
      </trkpt>
      <trkpt lat="42.85732" lon="0.26688">
        <ele>1554</ele>
        <time>2021-10-29T16:35:53Z</time>
      </trkpt>
      <trkpt lat="42.85732" lon="0.26695">
        <ele>1554</ele>
        <time>2021-10-29T16:35:57Z</time>
      </trkpt>
      <trkpt lat="42.85719" lon="0.26701">
        <ele>1548</ele>
        <time>2021-10-29T16:36:08Z</time>
      </trkpt>
      <trkpt lat="42.85712" lon="0.26708">
        <ele>1545</ele>
        <time>2021-10-29T16:36:15Z</time>
      </trkpt>
      <trkpt lat="42.85708" lon="0.26717">
        <ele>1543</ele>
        <time>2021-10-29T16:36:21Z</time>
      </trkpt>
      <trkpt lat="42.85699" lon="0.26723">
        <ele>1539</ele>
        <time>2021-10-29T16:36:29Z</time>
      </trkpt>
      <trkpt lat="42.85693" lon="0.26731">
        <ele>1536</ele>
        <time>2021-10-29T16:36:36Z</time>
      </trkpt>
      <trkpt lat="42.85686" lon="0.26758">
        <ele>1532</ele>
        <time>2021-10-29T16:36:53Z</time>
      </trkpt>
      <trkpt lat="42.85679" lon="0.26779">
        <ele>1529</ele>
        <time>2021-10-29T16:37:06Z</time>
      </trkpt>
      <trkpt lat="42.85665" lon="0.26799">
        <ele>1523</ele>
        <time>2021-10-29T16:37:22Z</time>
      </trkpt>
      <trkpt lat="42.85658" lon="0.26816">
        <ele>1521</ele>
        <time>2021-10-29T16:37:34Z</time>
      </trkpt>
      <trkpt lat="42.85629" lon="0.26841">
        <ele>1511</ele>
        <time>2021-10-29T16:38:01Z</time>
      </trkpt>
      <trkpt lat="42.85613" lon="0.26859">
        <ele>1505</ele>
        <time>2021-10-29T16:38:18Z</time>
      </trkpt>
      <trkpt lat="42.856" lon="0.26878">
        <ele>1500</ele>
        <time>2021-10-29T16:38:33Z</time>
      </trkpt>
      <trkpt lat="42.85591" lon="0.26912">
        <ele>1495</ele>
        <time>2021-10-29T16:38:54Z</time>
      </trkpt>
      <trkpt lat="42.85583" lon="0.26927">
        <ele>1492</ele>
        <time>2021-10-29T16:39:05Z</time>
      </trkpt>
      <trkpt lat="42.85557" lon="0.26955">
        <ele>1485</ele>
        <time>2021-10-29T16:39:32Z</time>
      </trkpt>
      <trkpt lat="42.85546" lon="0.26974">
        <ele>1481</ele>
        <time>2021-10-29T16:39:46Z</time>
      </trkpt>
      <trkpt lat="42.85537" lon="0.26984">
        <ele>1477</ele>
        <time>2021-10-29T16:39:55Z</time>
      </trkpt>
      <trkpt lat="42.85514" lon="0.27043">
        <ele>1471</ele>
        <time>2021-10-29T16:40:34Z</time>
      </trkpt>
      <trkpt lat="42.8549" lon="0.27078">
        <ele>1463</ele>
        <time>2021-10-29T16:41:03Z</time>
      </trkpt>
      <trkpt lat="42.85475" lon="0.27094">
        <ele>1459</ele>
        <time>2021-10-29T16:41:18Z</time>
      </trkpt>
      <trkpt lat="42.85447" lon="0.27131">
        <ele>1454</ele>
        <time>2021-10-29T16:41:49Z</time>
      </trkpt>
      <trkpt lat="42.85436" lon="0.27148">
        <ele>1451</ele>
        <time>2021-10-29T16:42:02Z</time>
      </trkpt>
      <trkpt lat="42.85418" lon="0.27193">
        <ele>1450</ele>
        <time>2021-10-29T16:42:32Z</time>
      </trkpt>
      <trkpt lat="42.85383" lon="0.27241">
        <ele>1445</ele>
        <time>2021-10-29T16:43:12Z</time>
      </trkpt>
      <trkpt lat="42.8535" lon="0.27276">
        <ele>1438</ele>
        <time>2021-10-29T16:43:46Z</time>
      </trkpt>
      <trkpt lat="42.85333" lon="0.27306">
        <ele>1440</ele>
        <time>2021-10-29T16:44:08Z</time>
      </trkpt>
      <trkpt lat="42.85283" lon="0.27371">
        <ele>1435</ele>
        <time>2021-10-29T16:45:03Z</time>
      </trkpt>
      <trkpt lat="42.85264" lon="0.27402">
        <ele>1432</ele>
        <time>2021-10-29T16:45:27Z</time>
      </trkpt>
      <trkpt lat="42.8526" lon="0.27411">
        <ele>1431</ele>
        <time>2021-10-29T16:45:33Z</time>
      </trkpt>
      <trkpt lat="42.85226" lon="0.27462">
        <ele>1429</ele>
        <time>2021-10-29T16:46:14Z</time>
      </trkpt>
      <trkpt lat="42.85189" lon="0.27527">
        <ele>1426</ele>
        <time>2021-10-29T16:47:02Z</time>
      </trkpt>
      <trkpt lat="42.8518" lon="0.27545">
        <ele>1424</ele>
        <time>2021-10-29T16:47:15Z</time>
      </trkpt>
      <trkpt lat="42.85157" lon="0.27587">
        <ele>1418</ele>
        <time>2021-10-29T16:47:45Z</time>
      </trkpt>
      <trkpt lat="42.85152" lon="0.27599">
        <ele>1415</ele>
        <time>2021-10-29T16:47:53Z</time>
      </trkpt>
      <trkpt lat="42.85138" lon="0.27621">
        <ele>1409</ele>
        <time>2021-10-29T16:48:11Z</time>
      </trkpt>
      <trkpt lat="42.8513" lon="0.27639">
        <ele>1406</ele>
        <time>2021-10-29T16:48:23Z</time>
      </trkpt>
      <trkpt lat="42.85125" lon="0.27645">
        <ele>1404</ele>
        <time>2021-10-29T16:48:28Z</time>
      </trkpt>
      <trkpt lat="42.85133" lon="0.27592">
        <ele>1406</ele>
        <time>2021-10-29T16:49:00Z</time>
      </trkpt>
      <trkpt lat="42.85137" lon="0.27578">
        <ele>1406</ele>
        <time>2021-10-29T16:49:09Z</time>
      </trkpt>
    </trkseg>
  </trk>
</gpx>